Time;durP1;ratioP1;P1;durP2;ratioP2;P2;SDS_P1;SDS_P2;PMS_P1;PMS_P2;Temp;Humidity;BMP_temperature;BMP_pressure;BME280_temperature;BME280_humidity;BME280_pressure;Samples;Min_cycle;Max_cycle;Signal;HPM_P1;HPM_P2
2023/12/11 00:00:26;;;;;;;25.70;17.37;;;;;;;5.97;65.48;100636.70;1784609;80;21342;-85
2023/12/11 00:03:33;;;;;;;37.78;25.48;;;;;;;5.41;65.45;100632.24;1783200;80;21303;-85
2023/12/11 00:06:39;;;;;;;28.70;16.60;;;;;;;4.37;68.52;100628.52;1762001;80;21357;-85
2023/12/11 00:09:46;;;;;;;21.10;15.00;;;;;;;4.59;69.34;100624.88;1784320;80;21334;-85
2023/12/11 00:12:53;;;;;;;58.95;45.23;;;;;;;4.78;69.45;100622.31;1752643;80;21296;-85
2023/12/11 00:15:59;;;;;;;22.48;12.07;;;;;;;4.48;69.62;100623.58;1747372;82;21311;-85
2023/12/11 00:19:05;;;;;;;27.22;21.00;;;;;;;4.75;68.70;100617.64;1747362;82;21311;-84
2023/12/11 00:22:12;;;;;;;72.82;55.45;;;;;;;3.96;70.94;100613.90;1747882;82;21300;-85
2023/12/11 00:25:19;;;;;;;36.20;28.10;;;;;;;4.23;70.38;100605.31;1753133;80;21333;-85
2023/12/11 00:28:26;;;;;;;25.70;17.25;;;;;;;3.87;71.16;100602.97;1753531;82;21355;-85
2023/12/11 00:31:32;;;;;;;100.78;82.40;;;;;;;4.46;69.54;100593.89;1753664;82;21911;-85
2023/12/11 00:34:37;;;;;;;30.62;26.07;;;;;;;4.51;69.22;100581.31;1752542;82;21347;-86
2023/12/11 00:37:45;;;;;;;61.90;53.35;;;;;;;4.61;68.66;100576.35;1753535;82;22352;-85
2023/12/11 00:40:53;;;;;;;80.80;70.52;;;;;;;4.66;68.82;100581.84;1752121;81;21345;-85
2023/12/11 00:43:58;;;;;;;84.15;69.65;;;;;;;4.06;70.69;100581.02;1752699;82;21318;-85
2023/12/11 00:47:04;;;;;;;43.78;34.25;;;;;;;4.22;69.40;100573.81;1752463;82;21385;-85
2023/12/11 00:50:10;;;;;;;62.03;52.38;;;;;;;4.20;69.92;100567.67;1753189;82;21313;-85
2023/12/11 00:53:16;;;;;;;36.08;29.25;;;;;;;4.16;70.90;100559.45;1765257;80;21982;-85
2023/12/11 00:56:21;;;;;;;26.68;20.57;;;;;;;4.26;69.77;100577.13;1783303;80;21913;-85
2023/12/11 00:59:27;;;;;;;114.45;100.97;;;;;;;4.89;68.33;100590.20;1753538;80;21284;-85
2023/12/11 01:02:34;;;;;;;33.83;27.62;;;;;;;4.51;68.52;100589.44;1753481;82;21339;-85
2023/12/11 01:05:39;;;;;;;22.22;18.02;;;;;;;4.51;69.04;100586.73;1752205;82;22633;-85
2023/12/11 01:08:46;;;;;;;12.58;8.40;;;;;;;4.02;69.88;100579.55;1749114;81;21332;-85
2023/12/11 01:11:52;;;;;;;23.52;17.87;;;;;;;4.40;70.30;100574.61;1766693;80;22713;-85
2023/12/11 01:14:58;;;;;;;13.90;10.20;;;;;;;4.96;67.47;100582.42;1781214;80;21366;-85
2023/12/11 01:18:05;;;;;;;28.17;24.95;;;;;;;4.57;68.44;100580.81;1780605;80;21299;-85
2023/12/11 01:21:11;;;;;;;13.90;9.90;;;;;;;4.44;68.60;100580.13;1781951;80;21303;-85
2023/12/11 01:24:17;;;;;;;14.65;10.98;;;;;;;4.73;67.87;100577.13;1781726;80;21326;-85
2023/12/11 01:27:24;;;;;;;38.63;32.25;;;;;;;5.28;66.37;100570.95;1780428;80;21333;-85
2023/12/11 01:30:30;;;;;;;13.80;12.28;;;;;;;4.58;67.27;100574.39;1781895;80;21299;-85
2023/12/11 01:33:35;;;;;;;9.55;7.72;;;;;;;4.52;67.59;100561.38;1781935;80;21306;-85
2023/12/11 01:36:43;;;;;;;12.68;10.63;;;;;;;4.59;67.37;100566.13;1780512;80;21306;-85
2023/12/11 01:39:49;;;;;;;20.62;15.35;;;;;;;4.43;68.86;100565.73;1780521;80;21346;-85
2023/12/11 01:42:56;;;;;;;12.45;9.50;;;;;;;4.62;68.31;100574.50;1752681;80;22544;-85
2023/12/11 01:46:21;;;;;;;28.77;24.95;;;;;;;4.38;68.27;100575.25;1749905;82;21619;-85
2023/12/11 01:49:27;;;;;;;19.82;16.07;;;;;;;4.52;68.55;100574.93;1751170;82;21308;-85
2023/12/11 01:52:34;;;;;;;10.30;7.80;;;;;;;4.09;69.56;100570.41;1750952;82;21304;-85
2023/12/11 01:55:40;;;;;;;14.90;12.03;;;;;;;4.84;67.38;100573.48;1727293;82;21349;-85
2023/12/11 01:58:46;;;;;;;18.73;14.93;;;;;;;4.91;65.61;100580.61;1736007;82;21304;-85
2023/12/11 02:01:53;;;;;;;15.23;11.22;;;;;;;5.82;64.05;100572.41;1734968;82;21333;-85
2023/12/11 02:04:59;;;;;;;9.00;6.40;;;;;;;5.46;64.40;100575.25;1734689;82;21310;-85
2023/12/11 02:08:06;;;;;;;6.92;5.67;;;;;;;5.73;64.23;100569.17;1734813;82;21314;-85
2023/12/11 02:11:12;;;;;;;27.98;15.78;;;;;;;4.97;65.40;100572.78;1752331;81;21877;-85
2023/12/11 02:14:17;;;;;;;23.73;13.90;;;;;;;5.69;64.52;100567.73;1763904;81;21845;-85
2023/12/11 02:17:23;;;;;;;25.43;21.42;;;;;;;5.31;65.16;100565.24;1763838;81;21321;-85
2023/12/11 02:20:29;;;;;;;20.40;18.20;;;;;;;5.86;64.06;100556.71;1763774;81;21314;-85
2023/12/11 02:24:03;;;;;;;13.62;11.65;;;;;;;6.18;62.46;100551.07;1765206;81;21298;-85
2023/12/11 02:27:08;;;;;;;19.02;16.42;;;;;;;6.25;62.40;100546.77;1755116;81;21358;-85
2023/12/11 02:30:14;;;;;;;16.55;12.53;;;;;;;5.56;64.39;100544.94;1734640;82;21896;-85
2023/12/11 02:33:21;;;;;;;16.85;13.15;;;;;;;5.76;64.04;100534.98;1734755;82;22624;-85
2023/12/11 02:36:28;;;;;;;17.80;14.05;;;;;;;5.87;62.38;100529.91;1733690;82;21358;-85
2023/12/11 02:39:35;;;;;;;17.67;9.83;;;;;;;6.13;61.98;100529.77;1734865;81;21916;-85
2023/12/11 02:42:40;;;;;;;34.58;27.52;;;;;;;4.52;66.73;100522.11;1748247;81;21338;-85
2023/12/11 02:45:50;;;;;;;41.50;32.38;;;;;;;5.95;63.72;100523.32;1764972;81;21877;-85
2023/12/11 02:48:55;;;;;;;21.17;17.98;;;;;;;7.21;59.57;100521.77;1765256;81;21604;-85
2023/12/11 02:52:01;;;;;;;36.05;26.52;;;;;;;7.12;58.05;100525.39;1765230;81;21342;-85
2023/12/11 02:55:08;;;;;;;16.20;11.55;;;;;;;7.66;57.58;100522.31;1766255;81;21279;-84
2023/12/11 02:58:13;;;;;;;29.00;25.92;;;;;;;8.37;54.09;100525.13;1746591;81;21333;-85
2023/12/11 03:01:20;;;;;;;52.90;47.08;;;;;;;7.45;57.14;100531.27;1735050;82;21880;-85
2023/12/11 03:04:26;;;;;;;15.18;12.40;;;;;;;6.63;59.25;100537.76;1735021;82;21341;-85
2023/12/11 03:07:34;;;;;;;30.95;26.75;;;;;;;8.14;55.66;100533.42;1733676;82;21333;-84
2023/12/11 03:10:41;;;;;;;12.58;11.00;;;;;;;6.58;60.36;100531.02;1734033;81;22662;-85
2023/12/11 03:13:48;;;;;;;14.45;10.40;;;;;;;6.93;58.53;100540.41;1740920;81;21323;-85
2023/12/11 03:16:57;;;;;;;17.15;13.15;;;;;;;6.39;58.65;100542.26;1751293;82;21347;-85
2023/12/11 03:20:05;;;;;;;13.93;11.22;;;;;;;6.35;60.04;100544.94;1751405;82;21869;-85
2023/12/11 03:23:11;;;;;;;9.88;8.03;;;;;;;6.84;58.41;100540.78;1751557;82;21926;-85
2023/12/11 03:26:17;;;;;;;11.18;9.35;;;;;;;6.45;58.63;100545.44;1756657;81;21306;-85
2023/12/11 03:29:23;;;;;;;13.10;9.88;;;;;;;6.35;59.76;100550.84;1750898;81;21341;-85
2023/12/11 03:32:29;;;;;;;11.80;9.73;;;;;;;5.86;61.28;100543.99;1763896;81;21302;-85
2023/12/11 03:35:36;;;;;;;14.63;10.10;;;;;;;5.98;61.00;100542.56;1765261;81;21318;-85
2023/12/11 03:38:43;;;;;;;12.03;9.10;;;;;;;6.51;60.89;100552.49;1765326;81;21876;-85
2023/12/11 03:41:50;;;;;;;9.43;7.08;;;;;;;6.06;60.84;100553.05;1752992;81;21334;-85
2023/12/11 03:44:49;;;;;;;15.40;9.90;;;;;;;5.65;62.74;100551.39;1734073;81;21342;-85
2023/12/11 03:47:54;;;;;;;13.98;7.90;;;;;;;5.72;62.41;100540.32;1733814;82;21341;-85
2023/12/11 03:51:01;;;;;;;9.38;6.08;;;;;;;6.07;61.09;100543.92;1733749;82;21337;-85
2023/12/11 03:54:06;;;;;;;6.78;5.40;;;;;;;6.33;60.27;100542.84;1734987;82;21310;-85
2023/12/11 03:57:11;;;;;;;7.37;5.92;;;;;;;6.56;58.97;100536.61;1748945;81;21903;-85
2023/12/11 04:00:18;;;;;;;9.38;5.87;;;;;;;6.55;59.59;100531.33;1740144;81;21342;-85
2023/12/11 04:03:25;;;;;;;11.38;8.10;;;;;;;6.87;58.74;100536.42;1734577;82;21327;-85
2023/12/11 04:06:31;;;;;;;14.25;9.38;;;;;;;7.15;57.45;100535.95;1734574;82;21334;-85
2023/12/11 04:09:36;;;;;;;18.12;9.93;;;;;;;6.79;58.65;100526.78;1734517;81;21330;-84
2023/12/11 04:12:42;;;;;;;16.55;11.22;;;;;;;5.49;60.60;100521.19;1721270;82;21306;-86
2023/12/11 04:15:48;;;;;;;16.25;12.50;;;;;;;5.05;65.26;100527.39;1730248;83;21298;-85
2023/12/11 04:18:54;;;;;;;19.98;15.53;;;;;;;5.43;63.20;100530.75;1752091;82;21846;-85
2023/12/11 04:22:00;;;;;;;22.75;19.05;;;;;;;5.19;65.82;100527.53;1751929;82;21307;-85
2023/12/11 04:25:06;;;;;;;25.05;22.42;;;;;;;5.92;63.59;100531.73;1747223;82;21339;-85
2023/12/11 04:28:12;;;;;;;34.70;28.95;;;;;;;6.21;62.08;100534.50;1698656;83;21311;-85
2023/12/11 04:31:21;;;;;;;26.77;23.47;;;;;;;6.03;62.24;100542.99;1749593;82;21299;-85
2023/12/11 04:34:27;;;;;;;12.70;11.10;;;;;;;5.78;62.99;100539.75;1732292;82;21303;-85
2023/12/11 04:37:32;;;;;;;11.55;8.20;;;;;;;5.77;63.37;100542.62;1749027;82;21341;-85
2023/12/11 04:40:38;;;;;;;10.88;7.87;;;;;;;5.67;63.73;100548.53;1721788;83;21302;-85
2023/12/11 04:43:45;;;;;;;19.87;16.75;;;;;;;5.47;63.83;100546.27;1738892;82;21295;-85
2023/12/11 04:46:52;;;;;;;19.37;15.10;;;;;;;5.12;65.28;100550.24;1751422;82;21339;-85
2023/12/11 04:49:57;;;;;;;25.55;20.50;;;;;;;5.04;66.08;100552.80;1751945;82;21877;-85
2023/12/11 04:53:04;;;;;;;21.05;16.95;;;;;;;5.39;65.24;100558.64;1751904;82;21868;-85
2023/12/11 04:56:15;;;;;;;24.95;19.52;;;;;;;5.49;64.52;100555.11;1740869;82;21885;-85
2023/12/11 04:59:14;;;;;;;22.70;15.03;;;;;;;5.93;63.51;100555.20;1739896;82;21299;-85
2023/12/11 05:02:21;;;;;;;22.10;17.92;;;;;;;5.87;63.11;100570.13;1696435;84;21334;-85
2023/12/11 05:05:27;;;;;;;81.20;69.58;;;;;;;5.53;64.41;100574.19;1722119;83;21320;-85
2023/12/11 05:08:33;;;;;;;28.73;22.60;;;;;;;5.33;65.64;100573.27;1695585;84;21314;-85
2023/12/11 05:11:40;;;;;;;15.05;9.90;;;;;;;5.60;64.99;100569.45;1720389;83;21363;-85
2023/12/11 05:14:47;;;;;;;117.72;97.75;;;;;;;6.37;62.76;100564.66;1747423;81;21342;-86
2023/12/11 05:33:34;;;;;;;231.80;107.45;;;;;;;5.58;64.15;100548.86;1783779;80;21159;-85
2023/12/11 05:36:41;;;;;;;59.42;31.42;;;;;;;5.77;64.08;100559.76;1784762;80;21330;-85
2023/12/11 05:39:47;;;;;;;17.95;14.68;;;;;;;6.03;63.68;100566.92;1784747;80;21374;-85
2023/12/11 05:42:54;;;;;;;17.48;13.18;;;;;;;5.92;63.53;100570.25;1745531;80;21322;-85
2023/12/11 05:46:00;;;;;;;12.07;8.88;;;;;;;5.71;63.57;100570.33;1751581;80;21899;-85
2023/12/11 05:49:07;;;;;;;17.02;13.43;;;;;;;5.41;64.27;100572.09;1731072;83;21302;-85
2023/12/11 05:52:14;;;;;;;6.67;5.10;;;;;;;5.45;64.53;100585.72;1732439;83;21301;-85
2023/12/11 05:55:22;;;;;;;7.78;5.70;;;;;;;6.59;61.02;100592.05;1732574;83;21330;-84
2023/12/11 05:58:28;;;;;;;6.30;5.60;;;;;;;5.56;64.32;100596.99;1733778;81;21393;-85
2023/12/11 06:01:34;;;;;;;15.70;12.78;;;;;;;5.63;64.46;100590.86;1756667;81;22023;-85
2023/12/11 06:04:41;;;;;;;9.80;7.90;;;;;;;5.49;64.42;100583.59;1757728;81;21208;-84
2023/12/11 06:07:47;;;;;;;6.67;5.10;;;;;;;5.27;65.10;100599.08;1753021;81;21373;-85
2023/12/11 06:10:53;;;;;;;15.23;12.63;;;;;;;5.54;65.12;100594.89;1731100;81;21306;-85
2023/12/11 06:13:53;;;;;;;23.05;16.27;;;;;;;5.12;66.08;100589.06;1748314;81;21337;-85
2023/12/11 06:16:58;;;;;;;52.03;46.37;;;;;;;6.49;62.50;100579.44;1755416;81;21313;-84
2023/12/11 06:20:05;;;;;;;112.68;95.32;;;;;;;7.03;60.48;100580.67;1740854;81;21250;-85
2023/12/11 06:23:11;;;;;;;36.58;26.90;;;;;;;6.76;61.12;100575.99;1752110;81;21294;-85
2023/12/11 06:26:13;;;;;;;14.38;9.13;;;;;;;5.49;65.25;100584.95;1748765;81;21342;-86
2023/12/11 06:29:08;;;;;;;9.98;7.50;;;;;;;5.39;65.57;100584.41;1724596;80;22177;-85
2023/12/11 06:31:56;;;;;;;16.97;13.53;;;;;;;5.41;65.66;100582.95;1741716;81;22514;-85
2023/12/11 06:34:49;;;;;;;51.15;40.73;;;;;;;5.24;66.10;100573.58;1770104;80;22333;-85
2023/12/11 06:37:57;;;;;;;26.07;19.77;;;;;;;4.82;67.71;100564.64;1754770;80;21327;-86
2023/12/11 06:41:03;;;;;;;12.20;8.58;;;;;;;4.96;67.97;100579.70;1739370;82;21303;-85
2023/12/11 06:44:11;;;;;;;7.30;3.98;;;;;;;4.83;68.25;100595.67;1741479;81;21294;-85
2023/12/11 06:47:19;;;;;;;8.85;5.05;;;;;;;4.78;68.04;100593.00;1766408;80;21291;-85
2023/12/11 06:50:26;;;;;;;9.88;4.37;;;;;;;4.82;68.00;100593.10;1735276;82;21569;-85
2023/12/11 06:53:33;;;;;;;24.77;18.42;;;;;;;4.81;68.12;100597.66;1746641;81;21321;-85
2023/12/11 06:56:48;;;;;;;65.97;24.77;;;;;;;5.00;67.99;100590.66;1746612;81;21274;-85
2023/12/11 07:00:05;;;;;;;26.23;15.30;;;;;;;4.44;69.93;100590.47;1745349;81;21207;-85
2023/12/11 07:03:15;;;;;;;23.50;10.20;;;;;;;5.02;69.33;100593.58;1727998;81;21322;-85
2023/12/11 07:06:30;;;;;;;26.95;12.60;;;;;;;4.52;69.94;100592.54;1723806;81;21321;-85
2023/12/11 07:09:37;;;;;;;24.52;10.68;;;;;;;4.30;71.10;100594.34;1753714;81;21841;-85
2023/12/11 07:12:53;;;;;;;30.75;13.98;;;;;;;4.64;70.24;100594.68;1750252;81;22245;-85
2023/12/11 07:16:06;;;;;;;43.08;19.70;;;;;;;4.89;69.59;100591.56;1755303;81;21876;-85
2023/12/11 07:19:14;;;;;;;46.20;18.70;;;;;;;5.16;68.93;100594.22;1752239;81;21298;-85
2023/12/11 07:22:26;;;;;;;63.52;23.77;;;;;;;5.38;68.10;100590.84;1750000;81;21329;-85
2023/12/11 07:25:42;;;;;;;60.52;23.25;;;;;;;5.55;68.70;100593.89;1755962;81;21282;-85
2023/12/11 07:29:29;;;;;;;51.60;20.88;;;;;;;5.33;68.13;100584.97;1745841;81;21176;-86
2023/12/11 07:32:43;;;;;;;61.70;29.15;;;;;;;6.14;65.82;100578.16;1746442;81;21175;-85
2023/12/11 07:36:06;;;;;;;68.17;33.23;;;;;;;5.77;66.03;100568.41;1750038;81;22326;-86
2023/12/11 07:42:53;;;;;;;100.72;72.72;;;;;;;5.10;68.66;100559.02;1745022;81;21318;-85
2023/12/11 07:46:00;;;;;;;46.53;26.23;;;;;;;5.22;68.96;100549.81;1743468;81;22599;-85
2023/12/11 07:49:16;;;;;;;77.20;57.88;;;;;;;4.82;70.36;100542.46;1742556;81;21219;-85
2023/12/11 07:52:28;;;;;;;57.67;38.45;;;;;;;4.96;69.97;100552.09;1729698;81;21299;-85
2023/12/11 07:55:38;;;;;;;47.83;30.43;;;;;;;5.18;69.47;100551.58;1719396;82;21872;-85
2023/12/11 07:58:51;;;;;;;98.87;76.75;;;;;;;5.54;68.66;100563.19;1744525;81;21361;-84
2023/12/11 08:02:03;;;;;;;56.00;42.07;;;;;;;5.19;68.62;100556.86;1747076;80;21349;-84
2023/12/11 08:05:16;;;;;;;39.53;29.02;;;;;;;5.39;68.58;100555.93;1741357;82;21173;-85
2023/12/11 08:08:35;;;;;;;42.93;34.45;;;;;;;5.46;68.48;100559.44;1744061;81;21864;-84
2023/12/11 08:12:00;;;;;;;62.40;52.67;;;;;;;5.83;66.97;100549.72;1724616;82;21826;-84
2023/12/11 08:15:27;;;;;;;106.65;94.07;;;;;;;5.98;67.04;100545.27;1736400;81;21608;-84
2023/12/11 08:18:47;;;;;;;40.43;36.10;;;;;;;5.17;69.38;100548.48;1731976;81;21585;-84
2023/12/11 08:21:57;;;;;;;21.70;17.45;;;;;;;5.81;67.79;100551.70;1737658;81;21301;-84
2023/12/11 08:25:10;;;;;;;45.75;37.83;;;;;;;5.74;67.75;100545.60;1745573;80;22260;-84
2023/12/11 08:43:28;;;;;;;21.05;9.13;;;;;;;6.37;64.57;100549.71;1838155;76;28650;-89
2023/12/11 08:47:08;;;;;;;25.65;14.53;;;;;;;6.22;64.39;100547.58;1787269;78;21294;-87
2023/12/11 08:50:44;;;;;;;14.10;7.85;;;;;;;7.24;62.14;100547.30;1777228;78;21172;-88
2023/12/11 08:54:09;;;;;;;21.68;10.05;;;;;;;6.70;63.47;100539.89;1775968;78;21274;-91
2023/12/11 08:57:28;;;;;;;18.50;12.82;;;;;;;7.79;60.34;100531.49;1712717;81;21292;-90
2023/12/11 09:00:58;;;;;;;;;;;;;;;7.15;60.92;100530.03;1744168;80;21274;-91
2023/12/11 09:04:24;;;;;;;19.77;10.00;;;;;;;6.46;62.43;100519.97;1745627;80;20209;-91
2023/12/11 09:07:42;;;;;;;17.50;6.95;;;;;;;6.10;63.98;100515.61;1710420;81;21267;-91
2023/12/11 09:11:17;;;;;;;31.77;15.70;;;;;;;6.20;64.61;100511.03;1709285;82;21332;-91
2023/12/11 09:14:41;;;;;;;41.68;24.27;;;;;;;5.59;66.08;100504.44;1742957;80;21296;-90
2023/12/11 09:18:10;;;;;;;44.05;20.52;;;;;;;6.67;63.25;100509.76;1699910;83;21649;-91
2023/12/11 09:21:34;;;;;;;48.38;21.87;;;;;;;6.27;64.43;100501.31;1690637;83;21365;-90
2023/12/11 09:25:30;;;;;;;46.95;15.23;;;;;;;6.55;63.91;100498.72;1694230;83;21395;-89
2023/12/11 09:28:42;;;;;;;45.85;26.65;;;;;;;6.33;64.72;100496.66;1697771;83;21347;-90
2023/12/11 09:31:55;;;;;;;49.42;15.90;;;;;;;6.26;64.52;100492.82;1677052;83;21240;-87
2023/12/11 09:35:05;;;;;;;46.92;18.10;;;;;;;6.16;65.16;100490.58;1670475;84;21405;-87
2023/12/11 09:38:14;;;;;;;84.87;47.10;;;;;;;5.17;68.34;100488.82;1672893;84;22313;-87
2023/12/11 09:41:39;;;;;;;37.03;17.65;;;;;;;5.38;68.12;100484.19;1680479;83;21314;-87
2023/12/11 09:44:50;;;;;;;37.88;16.73;;;;;;;5.87;67.07;100481.05;1674779;84;21322;-87
2023/12/11 09:48:00;;;;;;;40.45;16.15;;;;;;;5.76;67.58;100489.34;1692919;83;21812;-86
2023/12/11 09:51:10;;;;;;;78.20;52.73;;;;;;;5.76;67.20;100482.05;1710988;82;21290;-86
2023/12/11 09:54:24;;;;;;;53.85;38.33;;;;;;;5.90;66.48;100479.42;1727031;82;21295;-87
2023/12/11 09:57:37;;;;;;;47.13;27.82;;;;;;;5.75;67.51;100476.77;1686428;81;21318;-87
2023/12/11 10:00:52;;;;;;;57.20;44.60;;;;;;;6.78;64.47;100468.83;1730591;81;21313;-90
2023/12/11 10:04:04;;;;;;;71.85;51.45;;;;;;;6.10;66.04;100466.72;1737623;81;21317;-90
2023/12/11 10:07:12;;;;;;;35.00;26.15;;;;;;;6.09;66.17;100450.08;1725809;81;21354;-90
2023/12/11 10:10:38;;;;;;;65.32;54.08;;;;;;;5.96;67.03;100442.72;1737409;81;21310;-90
2023/12/11 10:13:47;;;;;;;59.70;52.45;;;;;;;6.20;66.34;100439.05;1728940;81;21284;-89
2023/12/11 10:16:53;;;;;;;29.67;23.77;;;;;;;5.68;67.41;100437.61;1718137;81;21340;-90
2023/12/11 10:20:02;;;;;;;64.32;52.48;;;;;;;6.64;64.99;100440.26;1717910;81;21344;-89
2023/12/11 10:23:27;;;;;;;21.65;10.78;;;;;;;6.89;63.57;100440.59;1727349;81;21321;-90
2023/12/11 10:26:48;;;;;;;78.67;64.00;;;;;;;6.61;65.15;100443.77;1727376;81;21318;-89
2023/12/11 10:30:20;;;;;;;30.60;22.10;;;;;;;6.11;65.69;100442.62;1738340;81;21372;-89
2023/12/11 10:33:33;;;;;;;21.87;12.00;;;;;;;6.70;65.07;100434.72;1738943;81;21337;-90
2023/12/11 10:36:39;;;;;;;45.75;34.98;;;;;;;6.91;63.68;100435.34;1724218;81;21847;-89
2023/12/11 10:40:09;;;;;;;17.15;12.55;;;;;;;6.10;66.02;100428.70;1723259;81;21346;-90
2023/12/11 10:43:40;;;;;;;33.45;18.30;;;;;;;5.43;67.78;100429.02;1727807;81;21750;-90
2023/12/11 10:46:57;;;;;;;21.73;14.20;;;;;;;5.37;68.69;100425.02;1715028;81;21905;-89
2023/12/11 10:50:06;;;;;;;34.03;22.90;;;;;;;6.66;65.67;100417.84;1728881;81;21299;-89
2023/12/11 10:53:22;;;;;;;24.63;15.23;;;;;;;6.60;64.99;100418.45;1722571;81;21298;-90
2023/12/11 10:56:31;;;;;;;28.73;18.55;;;;;;;7.04;63.44;100408.31;1731101;81;21264;-90
2023/12/11 10:59:39;;;;;;;22.52;11.57;;;;;;;7.16;62.81;100411.19;1727582;81;21843;-90
2023/12/11 11:02:54;;;;;;;19.37;10.53;;;;;;;6.83;63.87;100414.01;1724546;81;21289;-89
2023/12/11 11:06:05;;;;;;;22.90;13.60;;;;;;;6.79;63.31;100406.64;1730353;81;21309;-87
2023/12/11 11:09:24;;;;;;;25.65;15.90;;;;;;;6.71;64.00;100400.23;1720885;81;21854;-90
2023/12/11 11:13:09;;;;;;;25.52;17.80;;;;;;;7.10;62.72;100395.45;1722505;81;21269;-91
2023/12/11 11:16:30;;;;;;;38.80;19.35;;;;;;;7.88;60.92;100397.13;1729804;81;21949;-91
2023/12/11 11:19:36;;;;;;;30.92;18.48;;;;;;;7.50;61.46;100395.06;1709736;81;21270;-90
2023/12/11 11:22:44;;;;;;;35.23;16.05;;;;;;;7.18;62.28;100399.64;1726757;81;21869;-90
2023/12/11 11:25:53;;;;;;;27.77;13.45;;;;;;;7.29;61.95;100391.77;1719301;81;21592;-90
2023/12/11 11:29:05;;;;;;;25.43;13.13;;;;;;;7.15;62.77;100387.69;1721901;81;21277;-90
2023/12/11 11:32:15;;;;;;;33.30;14.87;;;;;;;7.43;62.04;100383.07;1725198;81;21299;-90
2023/12/11 11:35:50;;;;;;;27.17;12.43;;;;;;;7.92;60.11;100380.83;1730408;81;21286;-90
2023/12/11 11:39:06;;;;;;;32.17;16.10;;;;;;;8.04;59.13;100391.80;1702715;81;21796;-90
2023/12/11 11:42:14;;;;;;;28.45;14.38;;;;;;;5.53;67.51;100400.04;1728795;81;21267;-90
2023/12/11 11:45:21;;;;;;;31.12;15.03;;;;;;;4.68;71.04;100397.84;1754438;80;21282;-87
2023/12/11 11:48:28;;;;;;;30.10;14.58;;;;;;;5.43;69.13;100396.47;1730246;82;21212;-87
2023/12/11 11:51:36;;;;;;;29.82;13.95;;;;;;;5.82;68.06;100401.89;1733571;81;21863;-91
2023/12/11 11:54:44;;;;;;;27.02;13.00;;;;;;;5.35;69.39;100391.73;1742623;81;21275;-87
2023/12/11 11:58:01;;;;;;;25.27;12.23;;;;;;;6.75;66.11;100393.00;1730301;81;21291;-87
2023/12/11 12:01:13;;;;;;;26.12;12.45;;;;;;;5.82;68.10;100400.03;1718326;81;21852;-87
2023/12/11 12:04:23;;;;;;;21.25;10.43;;;;;;;6.33;67.30;100399.36;1723034;81;22184;-87
2023/12/11 12:07:35;;;;;;;17.00;7.53;;;;;;;6.47;66.23;100404.83;1712222;82;21270;-90
2023/12/11 12:10:54;;;;;;;21.35;11.80;;;;;;;6.20;67.39;100399.66;1745236;80;21223;-90
2023/12/11 12:13:54;;;;;;;21.87;9.30;;;;;;;6.38;66.80;100403.84;1747520;80;21311;-87
2023/12/11 12:16:55;;;;;;;19.55;9.25;;;;;;;6.54;66.57;100396.42;1740813;80;21330;-87
2023/12/11 12:20:03;;;;;;;14.70;8.50;;;;;;;6.86;65.46;100391.42;1749269;80;21298;-90
2023/12/11 12:23:11;;;;;;;19.87;9.58;;;;;;;6.91;64.52;100394.55;1725729;82;21317;-90
2023/12/11 12:26:18;;;;;;;19.50;7.12;;;;;;;6.94;64.44;100396.13;1739827;80;21152;-90
2023/12/11 12:29:24;;;;;;;10.32;7.17;;;;;;;6.89;64.63;100395.22;1729901;82;21327;-87
2023/12/11 12:32:31;;;;;;;13.75;7.10;;;;;;;6.93;64.66;100402.58;1714739;81;21864;-87
2023/12/11 12:35:31;;;;;;;12.30;7.05;;;;;;;6.55;65.47;100397.66;1728896;81;21276;-87
2023/12/11 12:38:38;;;;;;;14.55;7.87;;;;;;;6.63;66.00;100405.93;1723504;81;21298;-87
2023/12/11 12:41:46;;;;;;;10.68;6.28;;;;;;;7.04;64.66;100410.52;1729063;81;21309;-90
2023/12/11 12:44:53;;;;;;;9.25;5.72;;;;;;;7.41;64.68;100412.31;1731539;81;21333;-90
2023/12/11 12:48:01;;;;;;;7.95;5.22;;;;;;;7.76;62.71;100408.75;1724497;81;21298;-91
2023/12/11 12:51:16;;;;;;;9.05;5.87;;;;;;;7.46;61.96;100405.91;1727460;81;21316;-87
2023/12/11 12:54:26;;;;;;;9.43;6.87;;;;;;;7.00;63.76;100410.98;1730025;81;21652;-87
2023/12/11 12:57:34;;;;;;;13.30;7.83;;;;;;;6.78;64.40;100417.68;1735550;81;21303;-87
2023/12/11 13:00:42;;;;;;;20.52;9.93;;;;;;;6.90;63.67;100405.59;1718352;81;21919;-91
2023/12/11 13:03:49;;;;;;;16.93;8.78;;;;;;;6.40;65.04;100412.73;1719895;81;21309;-87
2023/12/11 13:06:55;;;;;;;14.00;7.55;;;;;;;6.73;64.39;100397.73;1709492;82;21347;-88
2023/12/11 13:10:01;;;;;;;11.83;6.35;;;;;;;6.62;65.23;100402.84;1712762;81;21322;-87
2023/12/11 13:13:11;;;;;;;9.58;6.00;;;;;;;6.61;65.36;100399.77;1722945;81;21977;-91
2023/12/11 13:16:19;;;;;;;15.18;6.75;;;;;;;6.63;65.07;100400.97;1728883;81;21808;-87
2023/12/11 13:19:29;;;;;;;9.25;5.55;;;;;;;6.20;66.71;100407.81;1729259;81;21335;-91
2023/12/11 13:22:51;;;;;;;10.85;5.92;;;;;;;6.50;65.80;100408.62;1723670;81;21286;-87
2023/12/11 13:25:59;;;;;;;13.25;6.25;;;;;;;6.75;64.98;100405.23;1721742;81;21185;-87
2023/12/11 13:29:07;;;;;;;12.80;6.78;;;;;;;6.98;64.87;100399.41;1717246;81;21319;-90
2023/12/11 13:32:15;;;;;;;11.10;7.22;;;;;;;7.04;63.86;100398.28;1718510;81;21279;-87
2023/12/11 13:35:22;;;;;;;11.38;6.17;;;;;;;6.90;64.67;100398.28;1728941;81;21324;-87
2023/12/11 13:38:29;;;;;;;9.58;5.90;;;;;;;6.71;65.09;100405.17;1733840;81;21709;-91
2023/12/11 13:41:36;;;;;;;13.83;9.15;;;;;;;6.77;65.46;100401.84;1708224;82;21365;-91
2023/12/11 13:44:36;;;;;;;8.15;5.47;;;;;;;6.89;65.21;100391.64;1712823;82;21879;-87
2023/12/11 13:47:42;;;;;;;15.78;7.30;;;;;;;7.28;63.57;100380.02;1691630;83;21342;-86
2023/12/11 13:50:49;;;;;;;8.33;6.50;;;;;;;7.45;63.09;100387.02;1712625;83;21736;-90
2023/12/11 13:53:55;;;;;;;20.62;8.98;;;;;;;6.84;64.66;100393.96;1706685;83;21951;-87
2023/12/11 13:57:03;;;;;;;20.27;14.15;;;;;;;6.80;64.74;100402.06;1701146;83;21371;-88
2023/12/11 14:00:14;;;;;;;10.38;6.10;;;;;;;6.79;64.14;100401.20;1712427;83;21374;-91
2023/12/11 14:03:19;;;;;;;9.55;6.70;;;;;;;7.23;62.93;100397.31;1708759;83;21317;-90
2023/12/11 14:06:26;;;;;;;25.85;18.15;;;;;;;6.49;64.55;100387.86;1695741;83;21344;-91
2023/12/11 14:09:33;;;;;;;14.43;10.08;;;;;;;6.33;65.74;100387.13;1698047;83;21299;-87
2023/12/11 14:12:40;;;;;;;20.23;16.67;;;;;;;6.53;65.72;100379.77;1728043;83;21266;-91
2023/12/11 14:15:47;;;;;;;25.08;19.77;;;;;;;6.45;65.42;100380.53;1696788;84;21874;-87
2023/12/11 14:18:53;;;;;;;11.20;9.63;;;;;;;6.44;65.79;100383.37;1721724;83;21822;-87
2023/12/11 14:22:00;;;;;;;12.35;11.05;;;;;;;6.32;66.30;100383.56;1718291;83;21867;-91
2023/12/11 14:25:08;;;;;;;56.58;44.90;;;;;;;6.42;66.27;100379.97;1727380;83;21337;-87
2023/12/11 14:28:17;;;;;;;54.95;44.55;;;;;;;6.24;66.71;100367.64;1650911;86;21340;-87
2023/12/11 14:31:28;;;;;;;24.52;21.25;;;;;;;6.62;65.68;100363.93;1694266;84;21327;-87
2023/12/11 14:34:34;;;;;;;136.07;117.15;;;;;;;5.95;67.88;100379.42;1706558;83;21313;-87
2023/12/11 14:37:43;;;;;;;64.92;55.05;;;;;;;6.26;67.43;100381.45;1706772;83;21308;-87
2023/12/11 14:40:50;;;;;;;43.45;38.80;;;;;;;6.14;67.77;100378.53;1703615;83;21304;-87
2023/12/11 14:43:56;;;;;;;17.12;13.38;;;;;;;6.31;67.07;100380.50;1681222;85;21294;-91
2023/12/11 14:47:02;;;;;;;51.23;44.85;;;;;;;6.30;67.31;100376.05;1680982;85;21953;-91
2023/12/11 14:50:08;;;;;;;69.70;61.95;;;;;;;6.34;67.54;100370.67;1661425;85;21346;-87
2023/12/11 14:53:15;;;;;;;38.48;33.40;;;;;;;5.78;68.82;100369.25;1681027;85;21282;-87
2023/12/11 14:56:22;;;;;;;15.58;12.28;;;;;;;6.25;67.75;100366.63;1651656;87;21847;-88
2023/12/11 14:59:29;;;;;;;15.38;11.22;;;;;;;6.52;67.07;100364.48;1665059;85;21300;-90
2023/12/11 15:02:36;;;;;;;45.40;39.63;;;;;;;6.48;67.45;100369.85;1676715;85;21300;-87
2023/12/11 15:05:43;;;;;;;24.30;18.32;;;;;;;6.59;67.45;100375.97;1675869;85;21359;-90
2023/12/11 15:08:50;;;;;;;35.88;29.05;;;;;;;6.69;67.31;100368.28;1676886;85;21198;-87